Repülésmeteorológia

  • METAR LHSM 240415Z 32005KT CAVOK M06/M09 Q1040=
  • METAR LHSM 240030Z NIL=
  • METAR LHSM 240000Z NIL=
  • METAR LHSM 231545Z 36008KT CAVOK 01/M11 Q1040=
  • METAR LHSM 231515Z 35010KT CAVOK 01/M10 Q1040 NOSIG=

  • TAF LHSM 231115Z 2312/2321 36012G22KT CAVOK
  • TAF LHSM 230815Z 2309/2318 36010KT CAVOK
  • TAF LHSM 230515Z 2306/2315 36010KT CAVOK=
  • TAF LHSM 221115Z 2212/2221 34022G36KT 9999 BKN025
  • TAF LHSM 220815Z 2209/2218 32012KT 9999 BKN035 BKN070